Observations for DINARD PLEURTUIT, France (LFRD)

LFRD 182100Z AUTO 09011KT CAVOK 05/00 Q1018 NOSIG   
LFRD 182030Z AUTO 09012KT CAVOK 05/00 Q1018 NOSIG   
LFRD 182000Z AUTO 08012KT CAVOK 05/01 Q1018 NOSIG   
LFRD 181930Z AUTO 08014KT CAVOK 06/01 Q1019 TEMPO 07015G25KT
LFRD 181900Z AUTO 08013KT CAVOK 06/01 Q1019 TEMPO 07015G25KT
LFRD 181830Z AUTO 08011KT CAVOK 06/01 Q1018 TEMPO 07015G25KT
LFRD 181800Z AUTO 08010KT CAVOK 06/01 Q1019 TEMPO 07015G25KT
LFRD 181730Z AUTO 07010KT CAVOK 06/01 Q1018 TEMPO 07015G25KT
LFRD 181700Z AUTO 08010KT CAVOK 06/01 Q1018 TEMPO 08015G25KT
LFRD 181630Z AUTO 07012KT CAVOK 07/02 Q1018 TEMPO 08015G25KT
LFRD 181600Z AUTO 07010KT CAVOK 07/02 Q1018 TEMPO 08015G25KT
LFRD 181530Z AUTO 07011KT CAVOK 08/02 Q1018 TEMPO 08015G25KT
LFRD 181500Z AUTO 07012KT CAVOK 08/02 Q1018 TEMPO 08015G25KT
LFRD 181430Z AUTO 07012KT CAVOK 08/02 Q1018 TEMPO 08015G25KT
LFRD 181400Z AUTO 06012KT CAVOK 08/02 Q1019 TEMPO 08015G25KT
LFRD 181330Z AUTO 07013KT CAVOK 09/03 Q1019 TEMPO 08015G25KT
LFRD 181300Z AUTO 06010KT 040V100 CAVOK 08/02 Q1019 TEMPO 08015G25KT
LFRD 181230Z AUTO 07011KT CAVOK 08/03 Q1019 TEMPO 08015G25KT
LFRD 181200Z AUTO 07010KT CAVOK 08/02 Q1020 TEMPO 08015G25KT
LFRD 181130Z AUTO 08010KT 050V110 CAVOK 08/02 Q1020 NOSIG   
LFRD 181100Z AUTO 08013KT CAVOK 07/02 Q1020 TEMPO 09015G25KT
LFRD 181030Z AUTO 08012KT CAVOK 07/01 Q1020 TEMPO 09015G25KT
LFRD 181000Z AUTO 09009KT 9000 NSC 06/01 Q1021 TEMPO 09015G25KT 
LFRD 180930Z AUTO 09010KT CAVOK 06/01 Q1021 NOSIG   
LFRD 180900Z AUTO 08012KT CAVOK 05/01 Q1021 NOSIG   
LFRD 180830Z AUTO 07011KT CAVOK 05/01 Q1021 NOSIG   
LFRD 180800Z AUTO 08012KT CAVOK 04/01 Q1020 NOSIG   
LFRD 180730Z AUTO 08009KT CAVOK 04/01 Q1020 NOSIG   
LFRD 180700Z AUTO 08011KT CAVOK 04/01 Q1020 NOSIG   
LFRD 180630Z AUTO 08009KT CAVOK 03/01 Q1020 NOSIG   
LFRD 180600Z AUTO 08008KT CAVOK 03/01 Q1020 NOSIG   
LFRD 180530Z AUTO 09009KT CAVOK 04/01 Q1019 NOSIG   
LFRD 180500Z AUTO 09011KT CAVOK 04/02 Q1019 TEMPO BKN015
LFRD 180430Z AUTO 09012KT CAVOK 04/02 Q1019 TEMPO BKN015
LFRD 180400Z AUTO 09014KT CAVOK 05/02 Q1019 TEMPO BKN015
LFRD 180330Z AUTO 08015KT CAVOK 05/02 Q1019 NOSIG   
LFRD 180300Z AUTO 08013KT CAVOK 05/03 Q1019 NOSIG   
LFRD 180230Z AUTO 08013KT 9000 NSC 05/02 Q1019 NOSIG
LFRD 180200Z AUTO 08012KT 9000 NSC 04/02 Q1020 NOSIG
LFRD 180130Z AUTO 08009KT 8000 NSC 04/02 Q1020 NOSIG
LFRD 180100Z AUTO 09009KT 7000 NSC 03/02 Q1020 NOSIG
LFRD 180030Z AUTO 09008KT 7000 NSC 03/02 Q1020 NOSIG
LFRD 180000Z AUTO 10007KT 7000 NSC 03/02 Q1020 NOSIG
LFRD 172330Z AUTO 10006KT 7000 NSC 03/02 Q1020 NOSIG
LFRD 172300Z AUTO 10006KT 7000 NSC 03/02 Q1020 NOSIG
LFRD 172230Z AUTO 10007KT 6000 NSC 03/02 Q1020 NOSIG
LFRD 172200Z AUTO 09006KT 6000 NSC 03/02 Q1020 NOSIG
LFRD 172130Z AUTO 10005KT 070V130 6000 NSC 04/02 Q1020 NOSIG
LFRD 172100Z AUTO 10005KT 070V140 6000 NSC 04/02 Q1020 NOSIG
LFRD 172030Z AUTO 09008KT 6000 NSC 04/02 Q1020 NOSIG